Time;durP1;ratioP1;P1;durP2;ratioP2;P2;SDS_P1;SDS_P2;PMS_P1;PMS_P2;Temp;Humidity;BMP_temperature;BMP_pressure;BME280_temperature;BME280_humidity;BME280_pressure;Samples;Min_cycle;Max_cycle;Signal;HPM_P1;HPM_P2
2022/05/21 00:00:20;;;;;;;8.63;7.83;;;;;;;;;;6090662;23;20454;-90
2022/05/21 00:02:48;;;;;;;9.90;8.83;;;;;;;;;;6089610;23;20426;-92
2022/05/21 00:05:15;;;;;;;8.73;8.00;;;;;;;;;;6090855;23;20593;-92
2022/05/21 00:07:42;;;;;;;10.10;9.00;;;;;;;;;;6089558;23;20426;-91
2022/05/21 00:10:15;;;;;;;8.50;7.57;;;;;;;;;;6090819;23;20391;-91
2022/05/21 00:12:41;;;;;;;10.73;8.40;;;;;;;;;;6086962;23;20398;-91
2022/05/21 00:15:08;;;;;;;9.10;8.47;;;;;;;;;;6090075;23;20390;-91
2022/05/21 00:17:34;;;;;;;12.10;9.17;;;;;;;;;;6114092;23;20400;-91
2022/05/21 00:20:03;;;;;;;10.00;9.03;;;;;;;;;;6091336;23;20501;-92
2022/05/21 00:22:29;;;;;;;10.80;9.80;;;;;;;;;;6089273;23;20390;-91
2022/05/21 00:24:56;;;;;;;9.53;8.80;;;;;;;;;;6102829;23;20712;-91
2022/05/21 00:27:25;;;;;;;9.60;8.87;;;;;;;;;;6100645;23;20389;-91
2022/05/21 00:29:51;;;;;;;10.30;9.40;;;;;;;;;;6077838;23;20464;-91
2022/05/21 00:32:17;;;;;;;9.73;8.83;;;;;;;;;;6098162;23;20378;-92
2022/05/21 00:34:43;;;;;;;11.10;10.07;;;;;;;;;;6072476;23;20405;-91
2022/05/21 00:37:09;;;;;;;11.30;10.23;;;;;;;;;;6067785;23;20397;-92
2022/05/21 00:39:35;;;;;;;10.80;9.30;;;;;;;;;;6068390;23;20873;-92
2022/05/21 00:42:05;;;;;;;12.13;9.80;;;;;;;;;;6092523;23;20436;-91
2022/05/21 00:44:31;;;;;;;10.77;9.87;;;;;;;;;;6065474;23;20378;-91
2022/05/21 00:46:57;;;;;;;11.20;10.10;;;;;;;;;;6065481;23;20409;-92
2022/05/21 00:49:33;;;;;;;12.83;11.27;;;;;;;;;;6064665;23;20858;-90
2022/05/21 00:52:13;;;;;;;11.60;9.80;;;;;;;;;;6090262;23;20440;-92
2022/05/21 00:54:41;;;;;;;10.57;9.50;;;;;;;;;;6065580;23;20406;-91
2022/05/21 00:57:18;;;;;;;9.57;8.77;;;;;;;;;;6063446;23;20391;-90
2022/05/21 00:59:48;;;;;;;11.07;10.10;;;;;;;;;;6090334;23;20422;-91
2022/05/21 01:02:15;;;;;;;10.17;8.50;;;;;;;;;;6089387;23;20428;-91
2022/05/21 01:04:44;;;;;;;9.93;9.17;;;;;;;;;;6064874;23;20481;-91
2022/05/21 01:07:10;;;;;;;10.63;9.37;;;;;;;;;;6063430;23;20397;-92
2022/05/21 01:09:38;;;;;;;12.37;9.10;;;;;;;;;;6064635;23;20477;-91
2022/05/21 01:12:06;;;;;;;10.00;9.10;;;;;;;;;;6090030;23;20367;-91
2022/05/21 01:14:32;;;;;;;19.27;9.60;;;;;;;;;;6064553;23;20877;-91
2022/05/21 01:17:00;;;;;;;7.73;7.13;;;;;;;;;;6089464;23;20741;-91
2022/05/21 01:19:26;;;;;;;9.23;8.27;;;;;;;;;;6061809;23;20951;-91
2022/05/21 01:21:52;;;;;;;8.70;7.70;;;;;;;;;;6089667;23;20386;-92
2022/05/21 01:24:18;;;;;;;9.40;8.37;;;;;;;;;;6059163;23;20418;-92
2022/05/21 01:26:44;;;;;;;8.83;8.17;;;;;;;;;;6069198;23;20780;-90
2022/05/21 01:29:13;;;;;;;9.10;8.30;;;;;;;;;;6066010;23;20924;-91
2022/05/21 01:31:39;;;;;;;8.90;8.10;;;;;;;;;;6063600;23;20409;-92
2022/05/21 01:34:05;;;;;;;8.63;7.87;;;;;;;;;;6067327;23;20900;-92
2022/05/21 01:36:32;;;;;;;9.27;8.33;;;;;;;;;;6090704;23;20521;-91
2022/05/21 01:38:58;;;;;;;9.50;8.57;;;;;;;;;;6088947;23;20731;-91
2022/05/21 01:41:24;;;;;;;8.47;7.70;;;;;;;;;;6064016;23;20402;-91
2022/05/21 01:46:34;;;;;;;6.70;6.20;;;;;;;;;;6104539;23;20385;-90
2022/05/21 01:49:00;;;;;;;7.70;6.07;;;;;;;;;;6062900;23;20441;-91
2022/05/21 01:51:26;;;;;;;7.47;6.87;;;;;;;;;;6068272;23;20374;-91
2022/05/21 01:53:52;;;;;;;7.30;6.43;;;;;;;;;;6089941;23;20374;-91
2022/05/21 01:56:18;;;;;;;6.87;6.37;;;;;;;;;;6065328;23;20386;-91
2022/05/21 01:58:47;;;;;;;6.27;5.87;;;;;;;;;;6062483;23;20481;-90
2022/05/21 02:01:14;;;;;;;5.77;5.27;;;;;;;;;;6065015;23;20448;-89
2022/05/21 02:03:40;;;;;;;6.10;5.70;;;;;;;;;;6063400;23;20387;-90
2022/05/21 02:06:06;;;;;;;6.20;5.70;;;;;;;;;;6092134;23;20382;-91
2022/05/21 02:08:33;;;;;;;6.00;5.70;;;;;;;;;;6088618;23;20408;-91
2022/05/21 02:10:58;;;;;;;4.97;4.67;;;;;;;;;;6063644;23;20433;-90
2022/05/21 02:13:26;;;;;;;5.87;5.47;;;;;;;;;;6062475;23;20394;-92
2022/05/21 02:15:52;;;;;;;5.57;5.20;;;;;;;;;;6065523;23;20390;-89
2022/05/21 02:18:19;;;;;;;5.07;4.80;;;;;;;;;;6062289;23;20426;-90
2022/05/21 02:20:47;;;;;;;6.07;5.57;;;;;;;;;;6065359;23;20504;-90
2022/05/21 02:23:13;;;;;;;5.90;5.50;;;;;;;;;;6064318;23;20434;-90
2022/05/21 02:25:39;;;;;;;8.03;5.50;;;;;;;;;;6064874;23;20413;-90
2022/05/21 02:28:05;;;;;;;5.03;4.73;;;;;;;;;;6063323;23;20425;-91
2022/05/21 02:30:31;;;;;;;6.67;5.40;;;;;;;;;;6089010;23;20433;-90
2022/05/21 02:32:57;;;;;;;5.63;5.23;;;;;;;;;;6066199;23;20771;-90
2022/05/21 02:35:23;;;;;;;4.87;4.50;;;;;;;;;;6065641;23;20386;-91
2022/05/21 02:40:34;;;;;;;6.23;4.13;;;;;;;;;;6096971;23;20436;-91
2022/05/21 02:43:00;;;;;;;4.73;4.50;;;;;;;;;;6090156;23;20405;-91
2022/05/21 02:45:27;;;;;;;4.63;4.33;;;;;;;;;;6067546;23;20393;-91
2022/05/21 02:47:53;;;;;;;4.50;4.30;;;;;;;;;;6067999;23;20918;-92
2022/05/21 02:50:21;;;;;;;4.33;4.13;;;;;;;;;;6076443;23;20939;-91
2022/05/21 02:52:47;;;;;;;8.93;4.77;;;;;;;;;;6072072;23;20394;-91
2022/05/21 02:55:14;;;;;;;4.63;4.43;;;;;;;;;;6067258;23;20425;-91
2022/05/21 02:57:40;;;;;;;6.33;4.13;;;;;;;;;;6067069;23;20439;-91
2022/05/21 03:00:08;;;;;;;8.80;4.90;;;;;;;;;;6100615;23;20418;-90
2022/05/21 03:02:34;;;;;;;4.30;3.90;;;;;;;;;;6095420;23;20383;-92
2022/05/21 03:05:01;;;;;;;5.37;4.93;;;;;;;;;;6078540;23;20865;-92
2022/05/21 03:07:28;;;;;;;4.97;4.13;;;;;;;;;;6076619;23;20395;-91
2022/05/21 03:12:39;;;;;;;4.27;4.00;;;;;;;;;;6097104;23;20393;-90
2022/05/21 03:15:05;;;;;;;4.70;4.17;;;;;;;;;;6072259;23;20425;-90
2022/05/21 03:17:31;;;;;;;4.90;4.50;;;;;;;;;;6072555;23;20402;-91
2022/05/21 03:19:57;;;;;;;4.60;4.37;;;;;;;;;;6069411;23;20654;-90
2022/05/21 03:22:23;;;;;;;5.43;4.70;;;;;;;;;;6072602;23;20481;-90
2022/05/21 03:24:49;;;;;;;5.03;4.63;;;;;;;;;;6069959;23;20889;-91
2022/05/21 03:27:15;;;;;;;5.80;4.90;;;;;;;;;;6098991;23;20363;-91
2022/05/21 03:29:41;;;;;;;7.10;5.47;;;;;;;;;;6069295;23;20469;-90
2022/05/21 03:32:08;;;;;;;9.43;5.40;;;;;;;;;;6073903;23;20421;-91
2022/05/21 03:34:36;;;;;;;5.67;4.97;;;;;;;;;;6095292;23;20386;-91
2022/05/21 03:37:02;;;;;;;5.10;4.70;;;;;;;;;;6073512;23;20408;-90
2022/05/21 03:39:29;;;;;;;4.70;4.17;;;;;;;;;;6071215;23;20430;-90
2022/05/21 03:41:54;;;;;;;6.73;4.97;;;;;;;;;;6071116;23;20410;-91
2022/05/21 03:44:21;;;;;;;4.43;4.17;;;;;;;;;;6069026;23;20405;-89
2022/05/21 03:46:47;;;;;;;5.50;4.97;;;;;;;;;;6108665;23;20386;-91
2022/05/21 03:49:13;;;;;;;6.93;4.77;;;;;;;;;;6108191;23;20383;-91
2022/05/21 03:51:39;;;;;;;5.67;5.07;;;;;;;;;;6071348;23;20371;-92
2022/05/21 03:54:05;;;;;;;6.30;5.57;;;;;;;;;;6099609;23;20386;-91
2022/05/21 03:56:31;;;;;;;9.37;4.60;;;;;;;;;;6069969;23;20394;-92
2022/05/21 03:58:57;;;;;;;6.93;6.00;;;;;;;;;;6070359;23;20386;-91
2022/05/21 04:01:23;;;;;;;7.83;5.70;;;;;;;;;;6047796;23;20545;-91
2022/05/21 04:03:50;;;;;;;6.10;5.50;;;;;;;;;;6098506;23;20821;-90
2022/05/21 04:06:17;;;;;;;7.37;6.17;;;;;;;;;;6074053;23;20706;-91
2022/05/21 04:08:43;;;;;;;5.63;4.83;;;;;;;;;;6074756;23;20393;-91
2022/05/21 04:11:09;;;;;;;5.33;5.00;;;;;;;;;;6104482;23;20397;-91
2022/05/21 04:13:35;;;;;;;5.33;4.83;;;;;;;;;;6078205;23;20536;-90
2022/05/21 04:16:01;;;;;;;8.00;4.87;;;;;;;;;;6076938;23;20405;-91
2022/05/21 04:18:27;;;;;;;6.87;4.57;;;;;;;;;;6104341;23;20488;-90
2022/05/21 04:20:53;;;;;;;7.07;4.50;;;;;;;;;;6077889;23;20442;-90
2022/05/21 04:23:19;;;;;;;5.27;4.77;;;;;;;;;;6102123;23;20385;-91
2022/05/21 04:25:46;;;;;;;7.07;5.30;;;;;;;;;;6077161;23;20394;-91
2022/05/21 04:28:14;;;;;;;4.73;4.33;;;;;;;;;;6106962;23;20410;-91
2022/05/21 04:30:40;;;;;;;7.23;6.00;;;;;;;;;;6078787;23;20441;-91
2022/05/21 04:33:32;;;;;;;8.80;6.33;;;;;;;;;;6074257;23;20479;-91
2022/05/21 04:38:44;;;;;;;9.10;5.63;;;;;;;;;;6098890;23;20896;-91
2022/05/21 04:41:10;;;;;;;6.70;5.70;;;;;;;;;;6076860;23;20514;-91
2022/05/21 04:43:36;;;;;;;8.70;6.00;;;;;;;;;;6070938;23;20485;-91
2022/05/21 04:46:02;;;;;;;8.23;7.37;;;;;;;;;;6070125;23;20882;-91
2022/05/21 04:48:28;;;;;;;6.50;5.00;;;;;;;;;;6070268;23;20394;-91
2022/05/21 04:50:58;;;;;;;5.87;5.43;;;;;;;;;;6069123;23;20806;-91
2022/05/21 04:53:24;;;;;;;6.30;5.53;;;;;;;;;;6067731;23;20402;-91
2022/05/21 04:55:50;;;;;;;4.90;4.50;;;;;;;;;;6068527;23;20405;-91
2022/05/21 04:58:16;;;;;;;13.47;5.90;;;;;;;;;;6069312;23;20841;-92
2022/05/21 05:00:42;;;;;;;6.53;5.70;;;;;;;;;;6067679;23;20445;-91
2022/05/21 05:03:12;;;;;;;5.60;5.13;;;;;;;;;;6069040;23;20398;-92
2022/05/21 05:05:39;;;;;;;6.47;5.87;;;;;;;;;;6068698;23;20398;-91
2022/05/21 05:08:05;;;;;;;5.67;4.80;;;;;;;;;;6070647;23;20390;-90
2022/05/21 05:10:31;;;;;;;9.83;5.70;;;;;;;;;;6064178;23;20454;-91
2022/05/21 05:12:57;;;;;;;9.20;4.80;;;;;;;;;;6067897;23;20395;-92
2022/05/21 05:15:23;;;;;;;6.20;5.70;;;;;;;;;;6066628;23;20485;-91
2022/05/21 05:17:50;;;;;;;5.33;4.90;;;;;;;;;;6066609;23;20390;-93
2022/05/21 05:20:16;;;;;;;8.63;5.30;;;;;;;;;;6066213;23;20434;-91
2022/05/21 05:22:42;;;;;;;7.70;5.13;;;;;;;;;;6072892;23;20445;-92
2022/05/21 05:25:08;;;;;;;6.37;5.40;;;;;;;;;;6078678;23;20394;-91
2022/05/21 05:27:34;;;;;;;6.23;5.37;;;;;;;;;;6085458;23;20406;-89
2022/05/21 05:30:01;;;;;;;6.47;5.87;;;;;;;;;;6086102;23;20521;-93
2022/05/21 05:32:27;;;;;;;8.40;5.93;;;;;;;;;;6084837;23;20385;-91
2022/05/21 05:34:53;;;;;;;8.80;5.57;;;;;;;;;;6070623;23;20880;-92
2022/05/21 05:37:19;;;;;;;7.80;6.13;;;;;;;;;;6100624;23;20382;-90
2022/05/21 05:39:45;;;;;;;9.73;5.20;;;;;;;;;;6074396;23;20448;-90
2022/05/21 05:42:12;;;;;;;6.83;5.97;;;;;;;;;;6072826;23;20406;-90
2022/05/21 05:44:38;;;;;;;5.40;5.00;;;;;;;;;;6075024;23;20390;-91
2022/05/21 05:47:07;;;;;;;8.50;6.10;;;;;;;;;;6096186;23;20402;-92
2022/05/21 05:49:33;;;;;;;9.60;6.37;;;;;;;;;;6095226;23;20378;-91
2022/05/21 05:51:59;;;;;;;7.27;5.73;;;;;;;;;;6076388;23;20488;-91
2022/05/21 05:54:25;;;;;;;7.80;6.10;;;;;;;;;;6100051;23;20436;-92
2022/05/21 05:56:52;;;;;;;8.70;6.03;;;;;;;;;;6071676;23;20390;-92
2022/05/21 06:04:51;;;;;;;10.43;6.77;;;;;;;;;;6093311;23;20895;-91
2022/05/21 06:07:17;;;;;;;6.77;6.10;;;;;;;;;;6068059;23;20461;-91
2022/05/21 06:09:43;;;;;;;7.27;6.53;;;;;;;;;;6092766;23;20374;-92
2022/05/21 06:12:09;;;;;;;7.57;6.80;;;;;;;;;;6067395;23;20406;-91
2022/05/21 06:14:37;;;;;;;15.50;7.00;;;;;;;;;;6070392;23;20442;-92
2022/05/21 06:17:03;;;;;;;7.37;6.67;;;;;;;;;;6073301;23;20413;-92
2022/05/21 06:19:29;;;;;;;6.80;6.23;;;;;;;;;;6071962;23;20448;-92
2022/05/21 06:21:58;;;;;;;8.90;6.80;;;;;;;;;;6071037;23;20708;-89
2022/05/21 06:24:26;;;;;;;7.33;6.57;;;;;;;;;;6087875;23;20758;-92
2022/05/21 06:26:53;;;;;;;8.13;7.43;;;;;;;;;;6070680;23;20429;-91
2022/05/21 06:29:19;;;;;;;16.43;7.40;;;;;;;;;;6068294;23;20436;-91
2022/05/21 06:31:48;;;;;;;12.53;7.23;;;;;;;;;;6068229;23;20479;-90
2022/05/21 06:34:14;;;;;;;13.33;7.23;;;;;;;;;;6080433;23;20786;-89
2022/05/21 06:36:40;;;;;;;7.73;5.43;;;;;;;;;;6090989;23;20373;-90
2022/05/21 06:39:06;;;;;;;7.77;6.77;;;;;;;;;;6075360;23;20473;-93
2022/05/21 06:41:32;;;;;;;7.27;5.43;;;;;;;;;;6074859;23;20935;-92
2022/05/21 06:43:58;;;;;;;8.23;6.87;;;;;;;;;;6075225;23;20398;-92
2022/05/21 06:46:24;;;;;;;8.00;6.40;;;;;;;;;;6071843;23;20633;-92
2022/05/21 06:48:51;;;;;;;7.50;6.07;;;;;;;;;;6073673;23;20931;-92
2022/05/21 06:51:16;;;;;;;5.93;5.33;;;;;;;;;;6074614;23;20409;-92
2022/05/21 06:53:43;;;;;;;7.90;6.40;;;;;;;;;;6077035;23;20405;-91
2022/05/21 06:56:13;;;;;;;6.90;6.00;;;;;;;;;;6098439;23;20436;-90
2022/05/21 06:58:39;;;;;;;9.00;5.50;;;;;;;;;;6072701;23;20390;-91
2022/05/21 07:01:05;;;;;;;14.97;7.43;;;;;;;;;;6095142;23;20437;-91
2022/05/21 07:03:31;;;;;;;6.70;6.03;;;;;;;;;;6067509;23;20390;-91
2022/05/21 07:08:43;;;;;;;9.60;8.57;;;;;;;;;;6095779;23;20362;-92
2022/05/21 07:11:09;;;;;;;6.73;6.10;;;;;;;;;;6070746;23;20429;-92
2022/05/21 07:13:36;;;;;;;7.50;6.63;;;;;;;;;;6071354;23;20441;-92
2022/05/21 07:16:03;;;;;;;7.47;6.70;;;;;;;;;;6079342;23;20595;-92
2022/05/21 07:18:29;;;;;;;11.17;7.67;;;;;;;;;;6134113;23;20610;-91
2022/05/21 07:20:59;;;;;;;8.20;6.63;;;;;;;;;;6231102;23;20493;-94
2022/05/21 07:23:26;;;;;;;13.40;7.17;;;;;;;;;;6233366;23;20381;-92
2022/05/21 07:25:55;;;;;;;11.17;7.03;;;;;;;;;;6229370;23;20417;-91
2022/05/21 07:28:21;;;;;;;7.83;7.20;;;;;;;;;;6215362;23;20453;-89
2022/05/21 07:30:48;;;;;;;7.10;6.37;;;;;;;;;;6213348;23;20396;-90
2022/05/21 07:33:15;;;;;;;8.13;7.00;;;;;;;;;;6217342;23;20545;-88
2022/05/21 07:35:42;;;;;;;7.23;6.50;;;;;;;;;;6217045;23;20708;-88
2022/05/21 07:38:15;;;;;;;7.80;6.80;;;;;;;;;;6219441;23;20445;-90
2022/05/21 07:40:42;;;;;;;7.17;6.47;;;;;;;;;;6242587;23;20421;-90
2022/05/21 07:43:17;;;;;;;9.70;7.20;;;;;;;;;;6217369;23;20389;-90
2022/05/21 07:45:43;;;;;;;10.07;7.57;;;;;;;;;;6243736;23;20385;-89
2022/05/21 07:48:12;;;;;;;9.53;7.23;;;;;;;;;;6245194;23;20732;-89
2022/05/21 07:50:40;;;;;;;7.10;6.70;;;;;;;;;;6218505;23;20402;-89
2022/05/21 07:53:13;;;;;;;9.57;7.13;;;;;;;;;;6220458;23;20385;-89
2022/05/21 07:55:41;;;;;;;8.93;8.03;;;;;;;;;;6217683;23;20405;-91
2022/05/21 07:58:07;;;;;;;11.70;8.43;;;;;;;;;;6219001;23;20488;-91
2022/05/21 08:00:34;;;;;;;8.60;7.73;;;;;;;;;;6242178;23;20432;-91
2022/05/21 08:03:00;;;;;;;14.40;7.27;;;;;;;;;;6223207;23;20460;-90
2022/05/21 08:05:27;;;;;;;15.53;8.60;;;;;;;;;;6247172;23;20715;-89
2022/05/21 08:07:54;;;;;;;13.60;9.40;;;;;;;;;;6246575;23;20437;-90
2022/05/21 08:10:22;;;;;;;11.57;7.03;;;;;;;;;;6216618;23;20401;-91
2022/05/21 08:12:49;;;;;;;10.53;7.80;;;;;;;;;;6217789;23;20386;-91
2022/05/21 08:15:15;;;;;;;8.77;7.20;;;;;;;;;;6241857;23;20390;-91
2022/05/21 08:17:41;;;;;;;8.97;8.13;;;;;;;;;;6209015;23;20922;-91
2022/05/21 08:20:10;;;;;;;14.17;8.43;;;;;;;;;;6087332;23;20430;-90
2022/05/21 08:28:13;;;;;;;14.30;8.67;;;;;;;;;;6087226;23;20448;-90
2022/05/21 08:30:39;;;;;;;11.90;8.30;;;;;;;;;;6063461;23;20406;-91
2022/05/21 08:33:06;;;;;;;8.90;8.17;;;;;;;;;;6062151;23;20399;-91
2022/05/21 08:35:32;;;;;;;11.57;8.10;;;;;;;;;;6065075;23;20387;-91
2022/05/21 08:37:58;;;;;;;8.23;7.43;;;;;;;;;;6070145;23;20402;-91
2022/05/21 08:40:44;;;;;;;17.30;9.90;;;;;;;;;;6080047;23;20674;-91
2022/05/21 08:43:50;;;;;;;9.63;8.73;;;;;;;;;;6093605;23;20378;-90
2022/05/21 08:46:54;;;;;;;7.20;6.57;;;;;;;;;;6092292;23;20402;-91
2022/05/21 08:50:03;;;;;;;9.50;8.57;;;;;;;;;;6088620;23;20402;-88
2022/05/21 08:52:52;;;;;;;11.17;8.93;;;;;;;;;;6088983;23;20398;-90
2022/05/21 08:55:58;;;;;;;10.03;8.60;;;;;;;;;;6090283;23;20897;-89
2022/05/21 08:59:04;;;;;;;10.93;8.67;;;;;;;;;;6087640;23;20485;-90
2022/05/21 09:02:10;;;;;;;16.73;9.60;;;;;;;;;;6089043;23;20408;-89
2022/05/21 09:05:16;;;;;;;8.37;7.57;;;;;;;;;;6091058;23;20444;-90
2022/05/21 09:08:11;;;;;;;12.63;7.60;;;;;;;;;;6091631;23;20398;-90
2022/05/21 09:11:01;;;;;;;14.20;7.77;;;;;;;;;;6090559;23;20405;-90
2022/05/21 09:14:03;;;;;;;11.93;8.57;;;;;;;;;;6087932;23;20554;-91
2022/05/21 09:17:11;;;;;;;8.47;7.30;;;;;;;;;;6090899;23;20381;-90
2022/05/21 09:20:14;;;;;;;9.70;8.70;;;;;;;;;;6091959;23;20457;-92
2022/05/21 09:23:21;;;;;;;9.50;8.73;;;;;;;;;;6097940;23;20398;-92
2022/05/21 09:26:28;;;;;;;12.03;9.03;;;;;;;;;;6101216;23;20455;-90
2022/05/21 09:29:35;;;;;;;11.67;8.57;;;;;;;;;;6103980;23;20414;-92
2022/05/21 09:32:40;;;;;;;9.30;8.13;;;;;;;;;;6104977;23;20382;-93
2022/05/21 09:35:52;;;;;;;9.07;8.30;;;;;;;;;;6113095;23;20394;-95
2022/05/21 09:39:11;;;;;;;12.77;10.03;;;;;;;;;;6111887;23;20398;-93
2022/05/21 09:45:24;;;;;;;9.10;7.57;;;;;;;;;;6168173;23;20388;-91
2022/05/21 09:48:09;;;;;;;10.23;7.10;;;;;;;;;;6159473;23;20392;-91
2022/05/21 09:51:18;;;;;;;7.40;6.90;;;;;;;;;;6159517;23;20383;-91
2022/05/21 09:54:25;;;;;;;12.00;9.30;;;;;;;;;;6158004;23;20388;-93
2022/05/21 09:57:45;;;;;;;8.30;6.50;;;;;;;;;;6167980;22;20432;-93
2022/05/21 10:00:57;;;;;;;8.97;7.20;;;;;;;;;;6170881;23;20466;-92
2022/05/21 10:04:01;;;;;;;8.50;7.17;;;;;;;;;;6166397;23;20384;-93
2022/05/21 10:07:07;;;;;;;12.83;7.83;;;;;;;;;;6170447;23;20415;-95
2022/05/21 10:11:13;;;;;;;9.07;7.17;;;;;;;;;;6160964;23;20441;-95
2022/05/21 10:13:28;;;;;;;12.77;7.50;;;;;;;;;;6121693;23;20407;-88
2022/05/21 10:16:53;;;;;;;10.27;7.37;;;;;;;;;;6163972;23;20387;-94
2022/05/21 10:19:54;;;;;;;7.63;6.40;;;;;;;;;;6169253;23;20435;-94
2022/05/21 10:23:15;;;;;;;8.47;6.80;;;;;;;;;;6168491;23;20395;-89
2022/05/21 10:26:22;;;;;;;5.90;5.50;;;;;;;;;;6167320;23;20396;-91
2022/05/21 10:29:29;;;;;;;7.83;7.27;;;;;;;;;;6168166;23;20415;-94
2022/05/21 10:32:45;;;;;;;8.63;6.27;;;;;;;;;;6159056;23;20388;-93
2022/05/21 10:35:40;;;;;;;6.27;5.67;;;;;;;;;;6162421;23;20546;-92
2022/05/21 10:38:40;;;;;;;6.27;5.77;;;;;;;;;;6160966;23;20399;-91
2022/05/21 10:41:09;;;;;;;7.33;6.73;;;;;;;;;;6141604;23;20424;-90
2022/05/21 10:44:01;;;;;;;6.00;5.57;;;;;;;;;;6154997;23;20414;-92
2022/05/21 10:47:16;;;;;;;5.90;5.50;;;;;;;;;;6149787;23;20495;-92
2022/05/21 10:50:37;;;;;;;5.83;5.30;;;;;;;;;;6151799;23;20518;-92
2022/05/21 10:53:32;;;;;;;5.47;5.13;;;;;;;;;;6151045;23;20416;-93
2022/05/21 10:56:41;;;;;;;6.07;5.63;;;;;;;;;;6153151;23;20384;-89
2022/05/21 10:59:47;;;;;;;5.30;4.90;;;;;;;;;;6150547;23;20475;-93
2022/05/21 11:02:33;;;;;;;6.07;5.67;;;;;;;;;;6153544;23;20399;-93
2022/05/21 11:05:19;;;;;;;7.07;6.37;;;;;;;;;;6156964;23;20468;-90
2022/05/21 11:08:25;;;;;;;6.97;6.50;;;;;;;;;;6155626;23;20471;-93
2022/05/21 11:11:13;;;;;;;6.60;6.20;;;;;;;;;;6157098;23;20376;-91
2022/05/21 11:14:09;;;;;;;6.83;6.30;;;;;;;;;;6149527;23;20748;-90
2022/05/21 11:16:54;;;;;;;8.00;7.30;;;;;;;;;;6151808;23;20392;-89
2022/05/21 11:20:11;;;;;;;6.47;5.97;;;;;;;;;;6151632;23;20424;-88
2022/05/21 11:23:01;;;;;;;7.57;6.20;;;;;;;;;;6151304;23;20396;-88
2022/05/21 11:25:41;;;;;;;8.63;6.23;;;;;;;;;;6127978;23;20901;-89
2022/05/21 11:28:14;;;;;;;7.73;6.53;;;;;;;;;;6125636;23;20395;-89
2022/05/21 11:30:40;;;;;;;7.57;5.60;;;;;;;;;;6152209;23;20475;-89
2022/05/21 11:40:08;;;;;;;4.70;4.50;;;;;;;;;;6155217;23;20932;-91
2022/05/21 11:43:36;;;;;;;7.67;5.23;;;;;;;;;;6152720;23;20399;-89
2022/05/21 11:46:45;;;;;;;5.73;5.27;;;;;;;;;;6150112;23;20706;-90
2022/05/21 11:50:11;;;;;;;5.93;4.90;;;;;;;;;;6153367;23;20499;-90
2022/05/21 11:53:37;;;;;;;9.90;6.07;;;;;;;;;;6152101;23;20397;-90
2022/05/21 11:56:51;;;;;;;9.40;6.53;;;;;;;;;;6150922;23;20395;-90
2022/05/21 11:59:52;;;;;;;7.23;5.80;;;;;;;;;;6153886;23;20400;-94
2022/05/21 12:03:02;;;;;;;6.30;5.87;;;;;;;;;;6105226;23;20466;-92
2022/05/21 12:06:10;;;;;;;10.40;6.80;;;;;;;;;;6156488;23;20399;-92
2022/05/21 12:09:23;;;;;;;6.60;6.10;;;;;;;;;;6154642;23;20383;-89
2022/05/21 12:12:44;;;;;;;7.70;6.03;;;20.50;99.90;;;;;;6153686;23;20690;-90
2022/05/21 12:15:59;;;;;;;12.17;5.90;;;;;;;;;;6151825;23;20406;-88
2022/05/21 12:19:24;;;;;;;6.37;5.87;;;20.40;99.90;;;;;;6156752;23;20475;-91
2022/05/21 12:22:14;;;;;;;5.40;5.00;;;;;;;;;;6165969;23;20483;-91
2022/05/21 12:24:43;;;;;;;7.13;5.10;;;20.10;99.90;;;;;;6142630;23;20392;-94
2022/05/21 12:27:24;;;;;;;6.60;5.90;;;20.10;99.90;;;;;;6131582;23;20396;-87
2022/05/21 12:30:00;;;;;;;5.27;4.87;;;20.50;99.90;;;;;;6126639;23;20407;-88
2022/05/21 12:32:33;;;;;;;6.63;5.93;;;;;;;;;;6125389;23;20403;-91
2022/05/21 12:35:23;;;;;;;5.97;5.37;;;21.00;99.90;;;;;;6127467;23;20683;-92
2022/05/21 12:37:55;;;;;;;6.67;6.00;;;20.70;99.90;;;;;;6128952;23;20424;-92
2022/05/21 12:40:30;;;;;;;8.10;6.30;;;;;;;;;;6156140;23;20376;-92
2022/05/21 12:43:23;;;;;;;6.03;5.73;;;;;;;;;;6127576;23;20428;-91
2022/05/21 12:45:51;;;;;;;8.53;5.43;;;19.90;99.90;;;;;;6126526;23;20665;-87
2022/05/21 12:48:26;;;;;;;9.23;6.60;;;;;;;;;;6132114;23;20410;-91
2022/05/21 12:51:46;;;;;;;10.17;6.57;;;20.10;99.90;;;;;;6132787;23;20376;-93
2022/05/21 12:55:09;;;;;;;6.50;5.87;;;20.30;99.90;;;;;;6150322;23;20895;-91
2022/05/21 12:58:35;;;;;;;8.33;5.60;;;20.40;99.90;;;;;;6157723;22;20432;-88
2022/05/21 13:02:20;;;;;;;6.90;6.20;;;20.40;99.90;;;;;;6156653;23;20443;-90
2022/05/21 13:05:07;;;;;;;6.77;5.70;;;;;;;;;;6160304;23;20404;-91
2022/05/21 13:07:44;;;;;;;6.33;5.53;;;;;;;;;;6157440;23;20544;-93
2022/05/21 13:10:22;;;;;;;6.93;6.33;;;;;;;;;;6156722;23;20388;-92
2022/05/21 13:13:38;;;;;;;6.70;6.10;;;;;;;;;;6157441;23;20415;-90
2022/05/21 13:16:34;;;;;;;8.33;6.03;;;;;;;;;;6150762;23;20388;-91
2022/05/21 13:20:08;;;;;;;7.07;6.57;;;;;;;;;;6154786;23;20458;-93
2022/05/21 13:23:12;;;;;;;6.53;5.77;;;;;;;;;;6191971;23;20435;-92
2022/05/21 13:26:16;;;;;;;6.63;6.10;;;;;;;;;;6193803;23;20418;-92
2022/05/21 13:29:34;;;;;;;12.00;6.20;;;;;;;;;;6158273;23;20970;-90
2022/05/21 13:32:26;;;;;;;6.03;5.47;;;;;;;;;;6152541;23;20397;-91
2022/05/21 13:35:50;;;;;;;7.37;5.50;;;;;;;;;;6157999;23;20487;-93
2022/05/21 13:38:56;;;;;;;7.37;5.47;;;;;;;;;;6156518;23;20730;-91
2022/05/21 13:42:02;;;;;;;6.23;5.70;;;;;;;;;;6156854;23;21183;-92
2022/05/21 13:45:04;;;;;;;5.53;5.00;;;;;;;;;;6156075;23;20364;-94
2022/05/21 13:48:18;;;;;;;7.10;5.10;;;;;;;;;;6154547;23;20402;-93
2022/05/21 13:51:24;;;;;;;5.43;5.10;;;;;;;;;;6161385;23;20391;-93
2022/05/21 13:54:30;;;;;;;11.90;11.10;;;;;;;;;;6154349;23;20416;-95
2022/05/21 13:57:42;;;;;;;6.47;5.97;;;;;;;;;;6153703;23;20413;-94
2022/05/21 14:00:57;;;;;;;7.67;5.43;;;;;;;;;;6155302;23;20392;-91
2022/05/21 14:04:16;;;;;;;6.43;5.00;;;;;;;;;;6151891;23;20462;-93
2022/05/21 14:07:21;;;;;;;8.50;4.80;;;;;;;;;;6157532;23;20392;-92
2022/05/21 14:10:27;;;;;;;5.60;5.17;;;;;;;;;;6157566;23;20380;-95
2022/05/21 14:13:36;;;;;;;6.30;5.70;;;;;;;;;;6152903;23;20386;-94
2022/05/21 14:16:46;;;;;;;7.30;6.63;;;;;;;;;;6158660;23;20499;-93
2022/05/21 14:19:51;;;;;;;6.80;6.20;;;;;;;;;;6156896;23;20395;-91
2022/05/21 14:22:57;;;;;;;5.90;5.70;;;;;;;;;;6152904;23;20436;-94
2022/05/21 14:26:03;;;;;;;7.20;6.60;;;;;;;;;;6150413;23;20384;-93
2022/05/21 14:29:20;;;;;;;;;;;;;;;;;;;;;
2022/05/21 14:32:13;;;;;;;6.33;5.93;;;;;;;;;;6150747;23;20938;-93
2022/05/21 14:35:18;;;;;;;6.83;5.77;;;;;;;;;;6154820;23;20376;-91
2022/05/21 14:38:04;;;;;;;6.00;5.50;;;;;;;;;;6152645;23;20429;-92
2022/05/21 14:41:03;;;;;;;6.30;5.50;;;;;;;;;;6127638;23;20538;-96
2022/05/21 14:44:09;;;;;;;6.57;5.97;;;;;;;;;;6169402;23;20427;-94
2022/05/21 14:53:29;;;;;;;9.17;8.27;;;;;;;;;;6155252;23;20444;-94
2022/05/21 14:56:31;;;;;;;7.27;6.77;;;;;;;;;;6154473;23;20363;-89
2022/05/21 14:59:38;;;;;;;8.03;7.23;;;;;;;;;;6152954;23;20445;-92
2022/05/21 15:02:44;;;;;;;13.80;8.27;;;;;;;;;;6159335;23;20498;-94
2022/05/21 15:05:50;;;;;;;8.43;7.10;;;;;;;;;;6157112;23;20423;-88
2022/05/21 15:08:56;;;;;;;8.53;6.80;;;;;;;;;;6157654;23;20381;-86
2022/05/21 15:11:47;;;;;;;8.20;7.20;;;;;;;;;;6158165;23;20403;-91
2022/05/21 15:14:38;;;;;;;6.53;6.03;;;;;;;;;;6135455;23;20388;-89
2022/05/21 15:17:42;;;;;;;9.37;7.10;;;;;;;;;;6165352;23;20414;-83
2022/05/21 15:20:48;;;;;;;7.00;6.40;;;;;;;;;;6161685;23;20458;-90
2022/05/21 15:23:55;;;;;;;6.13;5.70;;;;;;;;;;6160188;23;20440;-92
2022/05/21 15:27:02;;;;;;;7.20;6.67;;;;;;;;;;6156369;23;20466;-90
2022/05/21 15:30:28;;;;;;;6.90;6.20;;;;;;;;;;6159838;23;20412;-94
2022/05/21 15:36:09;;;;;;;6.67;6.10;;;;;;;;;;6132930;23;20764;-93
2022/05/21 15:39:24;;;;;;;7.70;7.03;;;;;;;;;;6129882;23;20392;-90
2022/05/21 15:42:31;;;;;;;7.70;7.10;;;;;;;;;;6121878;23;20500;-90
2022/05/21 15:45:43;;;;;;;6.63;6.20;;;;;;;;;;6125798;23;20381;-92
2022/05/21 15:48:51;;;;;;;6.83;6.33;;;;;;;;;;6123222;23;20534;-89
2022/05/21 15:51:57;;;;;;;7.10;6.10;;;;;;;;;;6126413;23;20385;-90
2022/05/21 15:55:03;;;;;;;8.67;7.83;;;;;;;;;;6126566;23;20389;-93
2022/05/21 15:58:09;;;;;;;7.23;6.50;;;;;;;;;;6136876;23;20416;-89
2022/05/21 16:01:14;;;;;;;7.77;7.13;;;;;;;;;;6135025;23;20924;-87
2022/05/21 16:04:20;;;;;;;10.93;7.57;;;;;;;;;;6139358;23;20415;-92
2022/05/21 16:07:27;;;;;;;10.57;8.30;;;;;;;;;;6141667;23;20397;-89
2022/05/21 16:10:32;;;;;;;10.53;8.20;;;;;;;;;;6139883;23;20420;-91
2022/05/21 16:13:38;;;;;;;7.30;6.60;;;;;;;;;;6138720;23;20420;-93
2022/05/21 16:16:44;;;;;;;7.50;6.97;;;;;;;;;;6129397;23;20385;-87
2022/05/21 16:19:50;;;;;;;8.53;7.27;;;;;;;;;;6137128;23;20488;-92
2022/05/21 16:22:56;;;;;;;8.40;7.70;;;;;;;;;;6140598;23;20453;-92
2022/05/21 16:26:06;;;;;;;8.30;7.50;;;;;;;;;;6128557;23;20460;-93
2022/05/21 16:29:12;;;;;;;8.47;7.30;;;;;;;;;;6125175;23;20404;-92
2022/05/21 16:32:19;;;;;;;6.90;6.60;;;;;;;;;;6129948;23;20384;-88
2022/05/21 16:35:24;;;;;;;7.50;7.00;;;;;;;;;;6123083;23;20507;-91
2022/05/21 17:31:51;;;;;;;7.87;7.10;;;;;;;;;;6146677;22;20455;-95
2022/05/21 17:38:14;;;;;;;7.33;6.70;;;;;;;;;;6142667;22;20490;-96
2022/05/21 17:41:15;;;;;;;7.60;6.97;;;;;;;;;;6135386;23;20401;-96
2022/05/21 17:44:19;;;;;;;7.00;6.53;;;;;;;;;;6138976;23;20510;-95
2022/05/21 17:47:25;;;;;;;7.63;6.97;;;;;;;;;;6131103;23;20400;-92